Time;durP1;ratioP1;P1;durP2;ratioP2;P2;SDS_P1;SDS_P2;PMS_P1;PMS_P2;Temp;Humidity;BMP_temperature;BMP_pressure;BME280_temperature;BME280_humidity;BME280_pressure;Samples;Min_cycle;Max_cycle;Signal;HPM_P1;HPM_P2
2021/12/30 04:30:36;;;;;;;1.20;1.10;;;;;;;17.64;57.85;98866.06;8154116;23;20607;-83
2021/12/30 04:33:57;;;;;;;2.03;1.57;;;;;;;17.59;58.27;98880.44;6804899;29;20205;-80
2021/12/30 04:37:19;;;;;;;1.40;1.30;;;;;;;17.70;58.10;98898.59;6815325;29;20216;-81
2021/12/30 04:40:41;;;;;;;2.00;1.63;;;;;;;17.80;57.86;98903.41;6819380;29;20242;-80
2021/12/30 04:44:03;;;;;;;1.37;1.37;;;;;;;17.63;58.73;98897.13;6841557;28;20253;-80
2021/12/30 04:47:26;;;;;;;1.93;1.30;;;;;;;17.67;58.63;98920.06;6840697;28;20214;-81
2021/12/30 04:50:48;;;;;;;4.73;1.33;;;;;;;17.09;61.22;98871.34;6841376;28;20224;-80
2021/12/30 04:54:09;;;;;;;1.77;1.60;;;;;;;17.42;61.39;98922.38;6840892;28;20214;-80
2021/12/30 04:57:31;;;;;;;2.47;1.53;;;;;;;17.52;60.68;98917.09;6841262;28;20231;-80
2021/12/30 05:00:52;;;;;;;2.10;2.00;;;;;;;17.65;60.68;98916.78;6841693;28;20290;-80
2021/12/30 05:04:15;;;;;;;4.50;3.53;;;;;;;17.55;61.46;98925.63;6839469;28;20233;-81
2021/12/30 05:07:37;;;;;;;1.30;1.20;;;;;;;17.54;61.48;98936.75;6846194;28;20211;-80
2021/12/30 05:10:58;;;;;;;1.20;1.10;;;;;;;17.56;61.87;98921.81;6840085;28;20226;-81
2021/12/30 05:14:20;;;;;;;1.60;1.50;;;;;;;17.44;62.48;98929.25;6835637;28;20358;-81
2021/12/30 05:17:43;;;;;;;1.20;1.20;;;;;;;17.35;62.71;98932.59;6835794;28;20218;-80
2021/12/30 05:21:06;;;;;;;1.10;1.10;;;;;;;17.42;62.67;98917.75;6835551;28;20262;-81
2021/12/30 05:24:28;;;;;;;2.07;1.30;;;;;;;17.35;63.56;98946.22;6835284;28;20209;-79
2021/12/30 05:27:50;;;;;;;2.23;1.30;;;;;;;17.06;64.41;98909.97;6835333;28;20362;-80
2021/12/30 05:31:12;;;;;;;1.23;1.13;;;;;;;17.06;64.00;98939.94;6835569;28;20289;-81
2021/12/30 05:34:34;;;;;;;1.27;1.23;;;;;;;17.09;63.69;98950.34;6834727;28;20296;-81
2021/12/30 05:37:59;;;;;;;1.53;1.43;;;;;;;16.71;66.15;98952.00;6836198;28;20214;-83
2021/12/30 05:41:21;;;;;;;1.50;1.40;;;;;;;17.34;63.38;98952.72;6838969;28;20272;-81
2021/12/30 05:44:43;;;;;;;3.67;2.33;;;;;;;17.19;64.36;98961.44;6836249;28;20214;-82
2021/12/30 05:48:05;;;;;;;3.30;3.00;;;;;;;17.35;63.23;98971.53;6837019;28;20211;-80
2021/12/30 05:51:27;;;;;;;2.87;1.90;;;;;;;17.45;63.02;98966.31;6835813;28;20648;-79
2021/12/30 05:54:50;;;;;;;2.30;2.10;;;;;;;16.99;64.69;98957.50;6834729;28;20310;-81
2021/12/30 05:58:11;;;;;;;2.83;2.00;;;;;;;16.89;65.37;98966.31;6834891;28;20293;-81
2021/12/30 06:01:33;;;;;;;2.37;1.83;;;;;;;17.19;64.13;98969.63;6834508;28;20329;-81
2021/12/30 06:04:55;;;;;;;4.60;1.97;;;;;;;16.81;64.47;98963.94;6833840;28;20252;-82
2021/12/30 06:08:16;;;;;;;2.00;1.90;;;;;;;17.41;63.46;98975.25;6835449;28;20243;-82
2021/12/30 06:11:39;;;;;;;3.27;1.97;;;;;;;17.04;64.52;98965.78;6835031;28;20255;-81
2021/12/30 06:15:01;;;;;;;1.97;1.87;;;;;;;17.23;63.94;98980.88;6834812;28;20258;-81
2021/12/30 06:18:23;;;;;;;2.60;2.40;;;;;;;17.49;63.13;98993.91;6836177;28;20614;-81
2021/12/30 06:21:44;;;;;;;3.27;2.93;;;;;;;17.62;62.54;98982.69;6836077;28;20242;-82
2021/12/30 06:25:07;;;;;;;4.20;3.40;;;;;;;17.59;62.34;98992.22;6834854;28;20209;-82
2021/12/30 06:28:30;;;;;;;1.83;1.73;;;;;;;17.62;62.35;98988.16;6835995;28;20307;-81
2021/12/30 06:31:51;;;;;;;3.27;2.20;;;;;;;17.75;62.07;98996.84;6835784;28;20241;-81
2021/12/30 06:35:13;;;;;;;3.27;1.63;;;;;;;17.27;63.03;98993.75;6835548;28;20221;-81
2021/12/30 06:38:35;;;;;;;1.60;1.50;;;;;;;17.33;63.74;99000.94;6835784;28;20220;-81
2021/12/30 06:41:57;;;;;;;1.30;1.20;;;;;;;17.01;64.60;99007.94;6835797;28;20231;-80
2021/12/30 06:45:20;;;;;;;1.70;1.60;;;;;;;17.54;63.62;98986.69;6835430;28;20216;-81
2021/12/30 06:48:44;;;;;;;2.30;1.50;;;;;;;17.45;63.45;98995.50;6840827;28;20221;-80
2021/12/30 06:52:08;;;;;;;2.47;1.83;;;;;;;17.36;64.17;99005.94;6839425;28;20322;-79
2021/12/30 06:55:30;;;;;;;2.50;1.40;;;;;;;17.52;63.64;99026.97;6840332;28;20294;-81
2021/12/30 06:58:51;;;;;;;2.37;1.20;;;;;;;17.68;62.98;99018.00;6840509;28;20223;-82
2021/12/30 07:02:15;;;;;;;1.87;1.77;;;;;;;17.71;62.87;99016.69;6840813;28;20242;-82
2021/12/30 07:05:36;;;;;;;1.50;1.30;;;;;;;17.42;63.63;99029.53;6840318;28;20208;-82
2021/12/30 07:08:58;;;;;;;1.30;1.30;;;;;;;17.58;63.16;99031.44;6841066;28;20668;-81
2021/12/30 07:12:19;;;;;;;2.73;1.40;;;;;;;17.35;63.95;99031.50;6840229;28;20816;-81
2021/12/30 07:15:41;;;;;;;1.20;1.10;;;;;;;17.40;64.33;99039.81;6840843;28;20262;-82
2021/12/30 07:19:04;;;;;;;1.43;1.20;;;;;;;17.43;64.62;99033.06;6840944;28;20212;-81
2021/12/30 07:22:25;;;;;;;1.00;1.00;;;;;;;17.54;64.33;99046.66;6841063;28;20239;-82
2021/12/30 07:25:47;;;;;;;1.03;1.03;;;;;;;17.84;63.11;99039.03;6841361;28;20206;-83
2021/12/30 07:29:09;;;;;;;0.90;0.90;;;;;;;17.02;65.05;99038.72;6841985;28;20313;-84
2021/12/30 07:32:30;;;;;;;1.40;1.27;;;;;;;17.52;64.16;99070.59;6841151;28;20300;-81
2021/12/30 07:35:53;;;;;;;0.90;0.90;;;;;;;18.03;62.84;99056.00;6840845;28;20549;-82
2021/12/30 07:39:15;;;;;;;1.00;1.00;;;;;;;18.06;62.16;99059.09;6839557;28;20223;-82
2021/12/30 07:42:36;;;;;;;1.53;1.43;;;;;;;17.63;62.82;99049.81;6841632;28;20232;-84
2021/12/30 07:45:59;;;;;;;1.03;1.03;;;;;;;17.20;65.55;99055.75;6840964;28;20215;-82
2021/12/30 07:49:22;;;;;;;1.13;1.13;;;;;;;17.23;65.39;99065.34;6841748;28;20215;-82
2021/12/30 07:52:45;;;;;;;1.13;1.13;;;;;;;17.69;64.45;99067.94;6841287;28;20228;-81
2021/12/30 07:56:07;;;;;;;2.63;1.50;;;;;;;17.72;64.02;99079.19;6840223;28;20227;-81
2021/12/30 07:59:28;;;;;;;1.80;1.70;;;;;;;17.51;64.94;99090.75;6840932;28;20588;-85
2021/12/30 08:02:50;;;;;;;1.60;1.50;;;;;;;17.41;65.14;99089.72;6818612;28;20601;-86
2021/12/30 08:06:11;;;;;;;1.37;1.33;;;;;;;17.15;66.12;99090.25;6809923;29;20571;-83
2021/12/30 08:09:35;;;;;;;1.00;1.00;;;;;;;16.77;67.37;99079.03;6810362;29;20293;-85
2021/12/30 08:12:57;;;;;;;1.00;1.00;;;;;;;17.13;66.88;99097.81;6815861;29;20230;-83
2021/12/30 08:16:18;;;;;;;2.03;1.83;;;;;;;17.18;66.64;99101.50;6825717;29;20205;-84
2021/12/30 08:19:40;;;;;;;2.30;2.10;;;;;;;17.35;65.83;99101.56;6835687;28;20223;-84
2021/12/30 08:23:02;;;;;;;3.20;1.50;;;;;;;17.58;64.94;99096.88;6835762;28;20279;-80
2021/12/30 08:26:25;;;;;;;1.50;1.40;;;;;;;17.78;64.40;99091.84;6835072;28;20212;-84
2021/12/30 08:29:47;;;;;;;1.00;1.00;;;;;;;18.09;63.49;99087.75;6835962;28;20213;-84
2021/12/30 08:33:08;;;;;;;0.97;0.97;;;;;;;18.02;63.14;99087.09;6835815;28;20239;-81
2021/12/30 08:36:30;;;;;;;0.90;0.90;;;;;;;17.84;63.89;99081.84;6835163;28;20573;-84
2021/12/30 08:39:52;;;;;;;1.50;0.83;;;;;;;18.11;62.79;99078.25;6825123;28;20374;-83
2021/12/30 08:43:15;;;;;;;1.00;1.00;;;;;;;17.82;63.71;99094.91;6835062;28;20325;-84
2021/12/30 08:46:36;;;;;;;0.90;0.90;;;;;;;17.59;63.97;99087.66;6814474;28;20666;-83
2021/12/30 08:49:58;;;;;;;1.00;1.00;;;;;;;18.09;62.36;99072.22;6834527;29;20219;-83
2021/12/30 08:53:22;;;;;;;0.93;0.93;;;;;;;18.09;62.37;99101.38;6837119;28;20231;-83
2021/12/30 08:56:43;;;;;;;1.47;1.37;;;;;;;18.23;62.51;99110.94;6836805;28;20215;-82
2021/12/30 09:00:12;;;;;;;1.23;1.17;;;;;;;18.28;62.26;99111.03;6837073;28;20208;-83
2021/12/30 09:03:34;;;;;;;1.40;1.30;;;;;;;18.46;61.48;99097.97;6837668;28;20234;-80
2021/12/30 09:06:56;;;;;;;1.00;1.00;;;;;;;18.15;62.92;99117.63;6821983;28;20242;-82
2021/12/30 09:10:18;;;;;;;0.90;0.90;;;;;;;18.40;61.69;99122.75;6810404;29;20233;-81
2021/12/30 09:13:40;;;;;;;0.90;0.90;;;;;;;18.67;60.89;99118.25;6810985;29;20216;-81
2021/12/30 09:17:04;;;;;;;0.90;0.90;;;;;;;18.56;60.58;99111.81;6809170;29;20291;-82
2021/12/30 09:20:25;;;;;;;0.73;0.73;;;;;;;18.28;61.34;99111.84;6810913;29;20256;-82
2021/12/30 09:23:48;;;;;;;1.00;1.00;;;;;;;18.95;59.56;99108.06;6809696;29;20237;-84
2021/12/30 09:27:10;;;;;;;0.80;0.80;;;;;;;18.61;60.50;99119.25;6809553;29;20212;-82
2021/12/30 09:30:32;;;;;;;0.93;0.93;;;;;;;18.84;60.55;99106.25;6830967;28;20235;-83
2021/12/30 09:33:55;;;;;;;1.50;1.40;;;;;;;19.21;59.46;99092.88;6821019;28;20209;-83
2021/12/30 09:37:16;;;;;;;1.40;1.30;;;;;;;19.33;59.16;99091.66;6818523;29;20817;-84
2021/12/30 09:40:40;;;;;;;1.13;1.13;;;;;;;18.87;60.45;99089.34;6828369;28;20717;-83
2021/12/30 09:44:02;;;;;;;1.20;1.10;;;;;;;18.91;60.87;99106.06;6837066;28;20232;-81
2021/12/30 09:47:23;;;;;;;1.50;1.40;;;;;;;18.47;62.28;99129.69;6836245;28;20212;-81
2021/12/30 09:50:48;;;;;;;1.33;1.20;;;;;;;18.68;61.64;99117.16;6836366;28;20230;-81
2021/12/30 09:54:10;;;;;;;0.80;0.80;;;;;;;18.59;61.51;99110.50;6835675;28;20202;-81
2021/12/30 09:57:32;;;;;;;1.20;1.20;;;;;;;18.87;61.30;99129.50;6836874;28;20251;-84
2021/12/30 10:00:55;;;;;;;0.90;0.90;;;;;;;18.71;62.06;99124.88;6837587;28;20222;-84
2021/12/30 10:04:16;;;;;;;1.10;1.10;;;;;;;19.02;60.94;99132.44;6837695;28;20554;-82
2021/12/30 10:07:41;;;;;;;1.10;1.10;;;;;;;19.66;58.89;99126.25;6838064;28;20611;-81
2021/12/30 10:11:05;;;;;;;1.00;1.00;;;;;;;19.47;58.83;99123.03;6838681;28;20307;-82
2021/12/30 10:14:28;;;;;;;1.13;1.13;;;;;;;19.84;57.67;99136.84;6838145;28;20213;-81
2021/12/30 10:17:54;;;;;;;1.10;1.00;;;;;;;19.20;58.41;99130.28;6838268;28;20215;-82
2021/12/30 10:21:18;;;;;;;1.70;1.30;;;;;;;19.69;58.80;99132.03;6842128;28;20348;-82
2021/12/30 10:24:41;;;;;;;1.00;1.00;;;;;;;20.01;57.35;99132.97;6843842;28;20213;-82
2021/12/30 10:28:22;;;;;;;2.50;2.30;;;;;;;20.38;57.38;99147.59;6844031;28;20209;-82
2021/12/30 10:31:44;;;;;;;1.60;1.50;;;;;;;20.39;56.34;99145.69;6848443;23;20237;-81
2021/12/30 10:35:08;;;;;;;0.77;0.77;;;;;;;20.01;57.90;99154.03;6795497;29;20204;-81
2021/12/30 10:38:31;;;;;;;0.80;0.80;;;;;;;19.88;57.91;99154.44;6795745;29;20257;-84
2021/12/30 10:41:56;;;;;;;1.00;1.00;;;;;;;19.61;58.10;99154.38;6809928;29;20249;-82
2021/12/30 10:45:21;;;;;;;1.30;0.90;;;;;;;19.63;58.62;99156.88;6821851;29;20220;-81
2021/12/30 10:49:08;;;;;;;1.00;0.90;;;;;;;19.62;58.17;99153.28;6823972;29;20217;-81
2021/12/30 10:52:30;;;;;;;2.87;2.33;;;;;;;19.53;58.28;99148.53;6839859;29;20265;-79
2021/12/30 10:55:52;;;;;;;2.30;2.10;;;;;;;19.84;57.88;99159.59;6847899;29;20219;-80
2021/12/30 10:59:21;;;;;;;2.03;1.33;;;;;;;19.83;57.88;99155.19;6835776;28;20214;-83
2021/12/30 11:02:43;;;;;;;1.20;1.20;;;;;;;20.12;57.16;99172.25;6831951;29;20239;-80
2021/12/30 11:06:11;;;;;;;1.10;1.00;;;;;;;19.57;58.34;99130.53;6841210;29;20230;-81
2021/12/30 11:09:33;;;;;;;0.83;0.83;;;;;;;19.60;57.86;99147.25;6822128;29;20212;-82
2021/12/30 11:12:55;;;;;;;0.90;0.90;;;;;;;19.56;59.17;99145.25;6820040;29;20247;-81
2021/12/30 11:16:18;;;;;;;1.80;1.70;;;;;;;19.95;57.85;99144.94;6819960;29;20220;-82
2021/12/30 11:19:41;;;;;;;1.70;0.90;;;;;;;20.23;56.61;99143.88;6819339;29;20218;-81
2021/12/30 11:23:03;;;;;;;1.27;0.90;;;;;;;20.35;56.27;99136.34;6820101;29;20238;-81
2021/12/30 11:26:25;;;;;;;0.83;0.83;;;;;;;20.16;56.74;99119.44;6819516;29;20217;-81
2021/12/30 11:29:49;;;;;;;0.90;0.90;;;;;;;20.47;56.75;99142.47;6830916;29;20214;-81
2021/12/30 11:33:12;;;;;;;0.93;0.93;;;;;;;21.08;55.48;99138.03;6844883;28;20241;-88
2021/12/30 11:36:34;;;;;;;0.80;0.80;;;;;;;20.75;55.85;99142.19;6845080;28;20216;-87
2021/12/30 11:39:57;;;;;;;0.73;0.70;;;;;;;21.02;53.80;99133.63;6845962;28;20205;-86
2021/12/30 11:43:21;;;;;;;0.73;0.73;;;;;;;20.61;55.26;99133.56;6845414;28;20226;-87
2021/12/30 11:46:44;;;;;;;0.80;0.80;;;;;;;20.52;55.34;99113.19;6839055;28;20206;-81
2021/12/30 11:50:10;;;;;;;0.83;0.83;;;;;;;21.17;54.37;99132.91;6846490;28;20186;-84
2021/12/30 11:53:32;;;;;;;2.17;1.30;;;;;;;20.80;55.74;99131.25;6845527;28;20205;-83
2021/12/30 11:57:25;;;;;;;1.60;1.50;;;;;;;21.66;53.54;99142.50;6836330;28;20210;-83
2021/12/30 12:00:49;;;;;;;1.30;0.70;;;;;;;20.99;54.83;99127.84;6819391;29;20237;-82
2021/12/30 12:04:15;;;;;;;2.10;1.90;;;;;;;20.92;54.54;99113.53;6818368;29;20257;-82
2021/12/30 12:11:29;;;;;;;0.80;0.80;;;;;;;21.06;55.42;99125.72;7030612;27;21205;-82
2021/12/30 12:15:00;;;;;;;0.90;0.90;;;;;;;20.48;56.76;99122.22;7029282;28;20686;-81
2021/12/30 12:18:23;;;;;;;1.20;1.07;;;;;;;20.97;54.89;99123.72;7030986;28;20216;-81
2021/12/30 12:21:47;;;;;;;1.00;1.00;;;;;;;20.63;55.41;99105.91;7030353;28;20235;-82
2021/12/30 12:25:11;;;;;;;1.53;1.00;;;;;;;21.01;54.58;99109.22;7028592;28;20216;-84
2021/12/30 12:28:34;;;;;;;0.80;0.80;;;;;;;20.96;55.54;99108.34;7029967;28;20225;-84
2021/12/30 12:31:57;;;;;;;1.47;1.00;;;;;;;20.77;55.88;99104.38;7029813;28;20221;-83
2021/12/30 12:35:30;;;;;;;0.87;0.87;;;;;;;20.79;55.48;99116.72;7029004;28;20216;-86
2021/12/30 12:38:53;;;;;;;1.27;1.10;;;;;;;20.88;54.95;99092.38;7029823;28;20223;-83
2021/12/30 12:42:14;;;;;;;2.13;1.67;;;;;;;20.84;55.19;99114.03;7029189;28;20236;-83
2021/12/30 12:45:41;;;;;;;1.00;1.00;;;;;;;20.70;55.57;99096.34;7028858;28;20251;-83
2021/12/30 12:49:06;;;;;;;1.10;1.00;;;;;;;20.88;55.09;99095.13;7029117;28;20657;-83
2021/12/30 12:52:42;;;;;;;0.83;0.83;;;;;;;20.90;55.01;99104.78;7028754;28;20247;-82
2021/12/30 12:56:05;;;;;;;0.77;0.77;;;;;;;20.75;55.06;99090.91;7028689;28;20201;-83
2021/12/30 12:59:27;;;;;;;0.80;0.80;;;;;;;20.92;54.85;99112.75;7029328;28;20201;-83
2021/12/30 13:02:50;;;;;;;0.90;0.90;;;;;;;20.57;55.72;99105.03;7029579;28;20237;-83
2021/12/30 13:06:14;;;;;;;0.50;0.50;;;;;;;20.32;56.20;99113.03;7028439;28;20204;-83
2021/12/30 13:09:36;;;;;;;0.70;0.70;;;;;;;20.64;56.05;99115.78;7028881;28;20229;-83
2021/12/30 13:13:00;;;;;;;0.83;0.83;;;;;;;20.32;56.48;99107.56;7028340;28;20221;-82
2021/12/30 13:16:24;;;;;;;1.40;1.30;;;;;;;20.49;56.17;99116.47;7028052;28;20267;-83
2021/12/30 13:19:49;;;;;;;1.40;1.30;;;;;;;20.50;55.43;99107.16;7027005;28;20212;-82
2021/12/30 13:23:10;;;;;;;2.70;1.73;;;;;;;20.60;54.97;99118.22;7010118;28;20226;-85
2021/12/30 13:26:38;;;;;;;0.60;0.60;;;;;;;20.47;55.06;99096.75;7009165;28;20205;-83
2021/12/30 13:30:01;;;;;;;0.80;0.80;;;;;;;20.79;54.12;99127.69;6990822;28;20219;-82
2021/12/30 13:33:22;;;;;;;0.60;0.60;;;;;;;20.44;54.97;99127.38;7004018;28;20221;-82
2021/12/30 13:36:46;;;;;;;0.77;0.77;;;;;;;20.18;55.18;99132.88;7008878;28;20201;-81
2021/12/30 13:40:16;;;;;;;0.83;0.70;;;;;;;20.26;55.07;99115.97;7009426;28;20216;-81
2021/12/30 13:43:38;;;;;;;0.70;0.70;;;;;;;20.62;54.55;99128.91;7009515;28;20200;-82
2021/12/30 13:47:19;;;;;;;1.33;0.60;;;;;;;20.58;54.10;99123.13;7008743;28;20229;-81
2021/12/30 13:50:42;;;;;;;10.30;7.63;;;;;;;20.47;54.42;99109.59;6996355;28;20226;-81
2021/12/30 13:54:09;;;;;;;0.80;0.80;;;;;;;20.05;55.77;99125.88;7012943;28;20678;-80
2021/12/30 13:57:32;;;;;;;2.27;2.07;;;;;;;20.00;55.62;99117.63;6982053;28;20187;-82
2021/12/30 14:01:00;;;;;;;3.47;3.03;;;;;;;20.45;54.92;99134.50;6982730;28;20222;-83
2021/12/30 14:04:28;;;;;;;8.80;7.90;;;;;;;20.16;55.46;99146.00;6982271;28;20206;-81
2021/12/30 14:07:50;;;;;;;1.83;1.27;;;;;;;20.23;55.36;99131.00;6983489;28;20196;-81
2021/12/30 14:11:13;;;;;;;3.73;3.43;;;;;;;20.25;56.25;99144.44;6980042;28;20617;-81
2021/12/30 14:14:37;;;;;;;1.37;1.30;;;;;;;20.50;55.20;99142.78;6983089;28;20213;-81
2021/12/30 14:17:59;;;;;;;6.93;6.30;;;;;;;20.14;55.88;99148.16;6983561;28;20198;-82
2021/12/30 14:21:23;;;;;;;2.00;1.37;;;;;;;20.16;55.83;99146.81;6984337;28;20233;-81
2021/12/30 14:24:45;;;;;;;1.17;1.17;;;;;;;20.17;54.82;99139.44;6982899;28;20213;-81
2021/12/30 14:28:22;;;;;;;1.00;0.90;;;;;;;20.54;54.58;99168.56;6982966;28;20198;-81
2021/12/30 14:31:47;;;;;;;0.90;0.90;;;;;;;20.76;54.29;99168.50;6981986;28;20261;-81
2021/12/30 14:35:10;;;;;;;1.03;0.90;;;;;;;20.86;53.69;99172.13;6982681;28;20191;-81
2021/12/30 14:38:31;;;;;;;1.13;1.10;;;;;;;20.52;54.15;99153.47;6982573;28;20218;-83
2021/12/30 14:42:04;;;;;;;0.60;0.60;;;;;;;20.67;54.25;99174.44;6982890;28;20605;-82
2021/12/30 14:45:35;;;;;;;0.80;0.80;;;;;;;20.38;55.04;99171.41;6982476;28;20336;-81
2021/12/30 14:48:58;;;;;;;0.60;0.60;;;;;;;20.21;55.47;99173.44;7007879;28;20201;-81
2021/12/30 14:52:23;;;;;;;0.87;0.87;;;;;;;20.57;55.21;99170.78;7009923;28;20728;-80
2021/12/30 14:55:45;;;;;;;1.00;1.00;;;;;;;20.10;56.56;99188.13;7009554;28;20214;-80
2021/12/30 14:59:08;;;;;;;1.47;0.90;;;;;;;19.58;57.86;99198.63;7010863;28;20558;-80
2021/12/30 15:02:32;;;;;;;0.87;0.87;;;;;;;19.08;57.90;99102.22;7010129;28;20228;-80
2021/12/30 15:05:54;;;;;;;1.30;1.20;;;;;;;19.10;59.18;99116.47;7010705;28;20212;-81
2021/12/30 15:09:16;;;;;;;1.97;1.40;;;;;;;20.04;56.91;99162.53;7009600;28;20704;-81
2021/12/30 15:12:39;;;;;;;1.70;1.60;;;;;;;20.26;56.69;99217.28;7009795;28;20221;-81
2021/12/30 15:16:01;;;;;;;1.20;1.10;;;;;;;20.10;57.64;99207.28;7009520;28;20209;-81
2021/12/30 15:19:24;;;;;;;1.23;1.23;;;;;;;19.84;57.64;99181.47;7009990;28;20206;-81
2021/12/30 15:22:46;;;;;;;1.70;1.60;;;;;;;20.18;57.52;99204.06;7009489;28;20842;-81
2021/12/30 15:26:08;;;;;;;1.60;1.50;;;;;;;20.12;57.43;99207.84;7009081;28;20213;-81
2021/12/30 15:29:29;;;;;;;1.27;1.17;;;;;;;20.05;57.20;99171.59;7009596;28;20221;-81
2021/12/30 15:32:51;;;;;;;2.27;1.30;;;;;;;19.43;58.83;99211.28;7009788;28;20226;-82
2021/12/30 15:36:14;;;;;;;1.40;1.30;;;;;;;19.70;58.82;99229.44;7010217;28;20212;-81
2021/12/30 15:39:36;;;;;;;1.27;1.17;;;;;;;19.84;58.52;99218.94;7009730;28;20205;-81
2021/12/30 15:42:59;;;;;;;1.00;1.00;;;;;;;19.60;58.67;99212.06;7009496;28;20233;-81
2021/12/30 15:46:20;;;;;;;1.30;1.30;;;;;;;19.55;58.94;99215.56;7009294;28;20209;-81
2021/12/30 15:49:42;;;;;;;1.00;1.00;;;;;;;19.19;59.94;99221.56;7008954;28;20241;-84
2021/12/30 15:53:05;;;;;;;1.20;1.13;;;;;;;19.19;59.54;99235.25;7007277;28;20229;-83
2021/12/30 15:56:27;;;;;;;1.00;1.00;;;;;;;18.98;60.92;99241.44;7006478;28;20202;-82
2021/12/30 15:59:49;;;;;;;1.20;1.20;;;;;;;19.15;60.17;99238.69;7006995;28;20213;-82
2021/12/30 16:03:10;;;;;;;4.03;3.67;;;;;;;19.12;59.99;99245.53;7002997;28;20230;-82
2021/12/30 16:06:32;;;;;;;5.03;3.80;;;;;;;19.29;59.45;99254.53;7005318;28;20645;-83
2021/12/30 16:09:55;;;;;;;2.70;1.80;;;;;;;19.31;59.39;99251.56;7005178;28;20699;-83
2021/12/30 16:13:16;;;;;;;2.10;2.00;;;;;;;19.58;59.59;99255.28;7005923;28;20224;-83
2021/12/30 16:16:38;;;;;;;2.03;1.80;;;;;;;19.12;60.75;99212.72;6996719;28;20310;-83
2021/12/30 16:20:02;;;;;;;2.10;2.00;;;;;;;18.77;63.88;99255.84;6995452;28;20203;-83
2021/12/30 16:23:23;;;;;;;3.07;2.00;;;;;;;18.51;65.75;99269.31;6987713;28;20301;-83
2021/12/30 16:26:46;;;;;;;4.70;2.10;;;;;;;18.15;66.18;99289.56;7005271;28;20243;-82
2021/12/30 16:33:32;;;;;;;2.73;2.47;;;;;;;18.61;64.92;99277.66;6919565;28;20224;-80
2021/12/30 16:36:54;;;;;;;8.37;7.10;;;;;;;18.66;64.80;99248.56;6916891;28;20856;-82
2021/12/30 16:40:16;;;;;;;16.37;10.60;;;;;;;18.81;64.03;99264.38;6918731;28;20199;-83
2021/12/30 16:43:40;;;;;;;68.67;31.47;;;;;;;18.99;63.74;99295.03;6923605;28;20218;-81
2021/12/30 16:47:04;;;;;;;13.43;8.70;;;;;;;19.44;62.35;99295.81;6925513;28;20208;-83
2021/12/30 16:50:26;;;;;;;4.70;3.77;;;;;;;19.33;62.09;99294.00;6915725;28;20233;-84
2021/12/30 16:53:48;;;;;;;2.77;2.37;;;;;;;19.42;61.93;99283.47;6919013;28;20218;-82
2021/12/30 16:57:10;;;;;;;3.50;2.47;;;;;;;19.20;62.13;99299.78;6921012;28;20211;-81
2021/12/30 17:00:34;;;;;;;3.70;2.57;;;;;;;19.22;62.22;99308.56;6944098;28;20224;-82
2021/12/30 17:03:55;;;;;;;1.70;1.60;;;;;;;19.35;61.65;99307.44;6958291;28;20211;-83
2021/12/30 17:07:17;;;;;;;3.00;1.60;;;;;;;19.21;62.00;99312.41;6960471;28;20198;-82
2021/12/30 17:10:39;;;;;;;2.00;1.70;;;;;;;18.32;63.29;99240.50;6953834;28;20584;-82
2021/12/30 17:14:00;;;;;;;3.13;1.70;;;;;;;19.00;62.53;99318.56;6951538;28;20209;-83
2021/12/30 17:17:23;;;;;;;1.53;1.43;;;;;;;18.78;61.85;99298.50;6953318;28;20207;-82
2021/12/30 17:20:45;;;;;;;1.83;1.60;;;;;;;19.11;60.86;99301.25;6964275;28;20236;-82
2021/12/30 17:24:07;;;;;;;3.37;2.20;;;;;;;19.04;60.94;99316.16;6958741;28;20211;-82
2021/12/30 17:27:29;;;;;;;2.10;1.90;;;;;;;19.13;60.55;99326.44;6952947;28;20214;-82
2021/12/30 17:30:55;;;;;;;1.53;1.43;;;;;;;18.94;60.96;99324.19;6949892;28;20309;-82
2021/12/30 17:34:18;;;;;;;1.57;1.47;;;;;;;18.80;60.15;99306.44;6933847;28;20628;-81
2021/12/30 17:37:41;;;;;;;1.77;1.67;;;;;;;18.75;59.19;99314.53;6944385;28;20223;-83
2021/12/30 17:41:03;;;;;;;1.53;1.43;;;;;;;18.54;59.26;99279.72;6928378;28;20232;-83
2021/12/30 17:44:28;;;;;;;1.20;1.20;;;;;;;18.46;59.33;99297.31;6919889;28;20206;-83
2021/12/30 17:47:50;;;;;;;1.57;1.47;;;;;;;18.84;58.56;99321.25;6921496;28;20686;-83
2021/12/30 17:51:13;;;;;;;1.40;1.30;;;;;;;18.95;57.68;99325.84;6921518;28;20265;-82
2021/12/30 17:54:35;;;;;;;1.60;1.50;;;;;;;18.67;57.87;99318.50;6921345;28;20210;-83
2021/12/30 17:57:59;;;;;;;1.40;1.30;;;;;;;18.99;57.53;99332.47;6919438;28;20204;-83
2021/12/30 18:01:20;;;;;;;1.73;1.60;;;;;;;18.97;57.27;99326.41;6921819;28;20230;-83
2021/12/30 18:04:42;;;;;;;2.10;1.90;;;;;;;18.87;57.85;99346.19;6921717;28;20234;-82
2021/12/30 18:08:06;;;;;;;2.63;2.00;;;;;;;19.14;56.81;99346.41;6940696;28;20198;-81
2021/12/30 18:11:29;;;;;;;2.97;2.40;;;;;;;19.23;56.44;99336.75;6948631;28;20273;-83
2021/12/30 18:14:51;;;;;;;1.63;1.53;;;;;;;19.02;56.45;99342.91;6950489;28;20340;-81
2021/12/30 18:18:13;;;;;;;2.30;1.77;;;;;;;18.89;56.66;99348.69;6936121;28;20203;-82
2021/12/30 18:21:34;;;;;;;1.87;1.60;;;;;;;18.66;57.20;99335.13;6946841;28;20236;-82
2021/12/30 18:24:57;;;;;;;2.13;2.03;;;;;;;18.60;57.90;99344.28;6946787;28;20200;-83
2021/12/30 18:28:19;;;;;;;1.70;1.60;;;;;;;18.40;57.76;99341.16;6924575;28;20215;-83
2021/12/30 18:31:41;;;;;;;2.00;1.80;;;;;;;18.69;57.01;99351.03;6920447;28;20268;-82
2021/12/30 18:35:03;;;;;;;6.87;5.90;;;;;;;18.90;57.31;99362.09;6932689;28;20207;-83
2021/12/30 18:38:24;;;;;;;2.60;1.60;;;;;;;18.61;57.22;99365.91;6918421;28;20208;-84
2021/12/30 18:41:47;;;;;;;1.50;1.40;;;;;;;18.94;56.50;99357.81;6917797;28;20318;-84
2021/12/30 18:45:10;;;;;;;2.80;2.57;;;;;;;18.76;56.96;99370.84;6915415;28;20218;-84
2021/12/30 18:48:33;;;;;;;2.93;1.70;;;;;;;18.84;56.27;99373.16;6918453;28;20239;-84
2021/12/30 18:51:55;;;;;;;2.57;2.37;;;;;;;18.38;57.39;99359.66;6917865;28;20272;-84
2021/12/30 18:55:18;;;;;;;1.73;1.63;;;;;;;18.91;55.57;99362.91;6917352;28;20221;-83
2021/12/30 18:58:41;;;;;;;14.77;13.27;;;;;;;18.88;56.01;99366.97;6919652;28;20301;-84
2021/12/30 19:02:03;;;;;;;2.93;2.73;;;;;;;18.86;55.04;99358.19;6917716;28;20233;-84
2021/12/30 19:05:27;;;;;;;2.10;2.00;;;;;;;18.65;55.02;99371.72;6916183;28;20237;-84
2021/12/30 19:08:49;;;;;;;1.67;1.57;;;;;;;18.41;54.74;99364.66;6932752;28;20198;-84
2021/12/30 19:12:12;;;;;;;1.67;1.57;;;;;;;18.70;54.45;99367.16;6939455;28;20272;-81
2021/12/30 19:15:38;;;;;;;1.83;1.33;;;;;;;18.64;54.16;99361.88;6933998;28;20229;-83
2021/12/30 19:18:59;;;;;;;2.00;1.80;;;;;;;18.45;54.57;99360.38;6931931;28;20245;-83
2021/12/30 19:22:21;;;;;;;2.53;1.47;;;;;;;18.63;53.88;99352.81;6925818;28;20226;-83
2021/12/30 19:25:43;;;;;;;2.20;2.00;;;;;;;18.35;54.73;99365.63;6943840;28;20211;-82
2021/12/30 19:29:05;;;;;;;5.60;2.27;;;;;;;18.26;54.31;99358.84;6945101;28;20667;-83
2021/12/30 19:32:30;;;;;;;1.60;1.50;;;;;;;18.48;53.69;99368.09;6941816;28;20399;-82
2021/12/30 19:35:53;;;;;;;1.87;1.70;;;;;;;18.65;53.62;99352.59;6940756;28;20328;-82
2021/12/30 19:39:15;;;;;;;2.37;1.73;;;;;;;18.49;52.81;99367.00;6923802;28;20203;-82
2021/12/30 19:42:37;;;;;;;2.50;2.20;;;;;;;18.86;52.12;99355.47;6945065;28;20237;-82
2021/12/30 19:45:59;;;;;;;1.40;1.30;;;;;;;18.90;51.86;99358.53;6933622;28;20226;-82
2021/12/30 19:49:22;;;;;;;2.10;2.00;;;;;;;18.53;52.01;99369.03;6945873;28;20204;-82
2021/12/30 19:52:44;;;;;;;1.30;1.20;;;;;;;18.79;51.37;99362.13;6946349;28;20242;-82
2021/12/30 19:56:07;;;;;;;1.30;1.30;;;;;;;18.37;51.54;99361.59;6952685;28;20574;-82
2021/12/30 19:59:29;;;;;;;3.63;3.27;;;;;;;18.48;51.66;99363.47;6956690;28;20285;-81
2021/12/30 20:02:54;;;;;;;2.93;2.40;;;;;;;18.55;51.64;99357.84;6955532;28;20233;-81
2021/12/30 20:06:17;;;;;;;1.30;1.30;;;;;;;18.46;51.55;99367.50;6952984;28;20206;-81
2021/12/30 20:09:48;;;;;;;1.57;1.50;;;;;;;19.00;49.90;99373.25;6944868;28;20201;-82
2021/12/30 20:13:10;;;;;;;3.50;1.23;;;;;;;18.98;50.03;99364.44;6947484;28;20241;-81
2021/12/30 20:16:31;;;;;;;3.83;1.90;;;;;;;18.52;50.87;99374.72;6941093;28;20630;-82
2021/12/30 20:19:53;;;;;;;1.50;1.37;;;;;;;18.84;49.92;99375.91;6948068;28;20217;-82
2021/12/30 20:23:16;;;;;;;2.13;1.57;;;;;;;18.86;49.67;99365.59;6937489;28;20592;-82
2021/12/30 20:26:38;;;;;;;1.10;1.10;;;;;;;18.67;49.80;99380.47;6959802;28;20210;-82
2021/12/30 20:30:00;;;;;;;1.33;1.30;;;;;;;18.76;49.68;99374.38;6965121;28;20222;-82
2021/12/30 20:33:21;;;;;;;1.60;1.50;;;;;;;18.68;49.38;99385.72;6972136;28;20250;-81